createdAt,value
2019-05-16T00:00:02.102Z,92.90
2019-05-16T00:02:30.489Z,92.30
2019-05-16T00:04:59.242Z,92.80
2019-05-16T00:07:28.365Z,93.70
2019-05-16T00:09:58.872Z,93.20
2019-05-16T00:12:29.209Z,93.80
2019-05-16T00:14:58.170Z,94.30
2019-05-16T00:17:28.525Z,94.60
2019-05-16T00:19:58.755Z,94.50
2019-05-16T00:22:28.770Z,94.90
2019-05-16T00:24:58.015Z,95.40
2019-05-16T00:27:28.115Z,95.70
2019-05-16T00:29:58.114Z,96.10
2019-05-16T00:32:28.190Z,96.40
2019-05-16T00:34:58.378Z,96.90
2019-05-16T00:37:28.697Z,97.50
2019-05-16T00:39:58.771Z,97.60
2019-05-16T00:42:28.668Z,98.20
2019-05-16T00:44:58.363Z,98.40
2019-05-16T00:47:28.392Z,98.50
2019-05-16T00:49:58.178Z,98.50
2019-05-16T00:52:28.853Z,98.30
2019-05-16T00:54:57.967Z,98.30
2019-05-16T00:57:28.211Z,98.20
2019-05-16T00:59:59.043Z,98.50
2019-05-16T01:02:28.817Z,98.20
2019-05-16T01:04:58.947Z,98.10
2019-05-16T01:07:27.784Z,98.50
2019-05-16T01:09:58.169Z,98.90
2019-05-16T01:12:28.236Z,99.40
2019-05-16T01:14:58.422Z,99.00
2019-05-16T01:17:28.349Z,98.40
2019-05-16T01:19:57.903Z,98.10
2019-05-16T01:22:28.853Z,97.80
2019-05-16T01:24:58.464Z,97.40
2019-05-16T01:27:27.814Z,97.80
2019-05-16T01:29:58.225Z,98.50
2019-05-16T01:32:29.168Z,98.10
2019-05-16T01:34:58.771Z,97.60
2019-05-16T01:37:27.885Z,97.40
2019-05-16T01:39:58.594Z,97.50
2019-05-16T01:42:27.843Z,97.40
2019-05-16T01:44:57.833Z,97.80
2019-05-16T01:47:28.632Z,98.40
2019-05-16T01:49:58.061Z,98.70
2019-05-16T01:52:28.930Z,98.90
2019-05-16T01:54:58.635Z,99.00
2019-05-16T01:57:28.240Z,99.30
2019-05-16T01:59:58.741Z,99.50
2019-05-16T02:02:28.895Z,99.80
2019-05-16T02:04:59.093Z,99.90
2019-05-16T02:07:28.257Z,99.90
2019-05-16T02:09:58.259Z,99.90
2019-05-16T02:12:27.738Z,99.90
2019-05-16T02:14:58.602Z,99.90
2019-05-16T02:17:28.834Z,99.90
2019-05-16T02:19:57.814Z,99.90
2019-05-16T02:22:28.393Z,99.90
2019-05-16T02:24:58.432Z,99.90
2019-05-16T02:27:28.563Z,99.90
2019-05-16T02:29:56.749Z,99.90
2019-05-16T02:32:25.155Z,99.90
2019-05-16T02:34:53.645Z,99.90
2019-05-16T02:37:29.174Z,99.90
2019-05-16T02:39:54.488Z,99.90
2019-05-16T02:42:22.466Z,99.90
2019-05-16T02:44:51.256Z,99.90
2019-05-16T02:47:21.033Z,99.90
2019-05-16T02:49:50.490Z,99.90
2019-05-16T02:52:21.717Z,99.90
2019-05-16T02:54:51.841Z,99.90
2019-05-16T02:57:21.174Z,99.90
2019-05-16T02:59:50.960Z,99.90
2019-05-16T03:02:20.621Z,99.90
2019-05-16T03:04:51.714Z,99.90
2019-05-16T03:07:36.411Z,99.90
2019-05-16T03:09:51.356Z,99.90
2019-05-16T03:12:22.088Z,99.90
2019-05-16T03:14:54.545Z,99.90
2019-05-16T03:17:25.806Z,99.90
2019-05-16T03:19:56.586Z,99.90
2019-05-16T03:22:31.233Z,99.90
2019-05-16T03:25:01.127Z,99.90
2019-05-16T03:27:30.656Z,99.90
2019-05-16T03:30:01.780Z,99.90
2019-05-16T03:32:34.189Z,99.90
2019-05-16T03:35:04.881Z,99.90
2019-05-16T03:37:30.744Z,99.90
2019-05-16T03:40:00.493Z,99.90
2019-05-16T03:42:31.088Z,99.90
2019-05-16T03:45:02.171Z,99.90
2019-05-16T03:47:31.346Z,99.90
2019-05-16T03:50:00.686Z,99.90
2019-05-16T03:52:31.032Z,99.90
2019-05-16T03:55:01.691Z,99.50
2019-05-16T03:57:30.715Z,99.70
2019-05-16T04:00:00.573Z,99.40
2019-05-16T04:02:30.918Z,99.50
2019-05-16T04:05:02.070Z,98.90
2019-05-16T04:07:31.679Z,99.00
2019-05-16T04:10:02.261Z,99.00
2019-05-16T04:12:30.893Z,99.00
2019-05-16T04:15:01.750Z,99.00
2019-05-16T04:17:31.724Z,98.50
2019-05-16T04:20:02.223Z,98.60
2019-05-16T04:22:31.741Z,98.60
2019-05-16T04:25:01.984Z,98.60
2019-05-16T04:27:30.875Z,98.60
2019-05-16T04:30:01.480Z,98.80
2019-05-16T04:32:31.542Z,98.70
2019-05-16T04:35:02.637Z,98.60
2019-05-16T04:37:31.458Z,98.30
2019-05-16T04:40:01.454Z,98.10
2019-05-16T04:42:31.349Z,98.00
2019-05-16T04:45:01.235Z,97.60
2019-05-16T04:47:31.773Z,97.40
2019-05-16T04:50:01.596Z,97.20
2019-05-16T04:52:30.721Z,97.10
2019-05-16T04:55:00.861Z,97.70
2019-05-16T04:57:31.219Z,97.90
2019-05-16T05:00:02.213Z,97.80
2019-05-16T05:02:30.907Z,97.80
2019-05-16T05:05:01.245Z,97.90
2019-05-16T05:07:31.223Z,98.10
2019-05-16T05:10:00.761Z,97.90
2019-05-16T05:12:31.391Z,98.20
2019-05-16T05:15:01.235Z,98.00
2019-05-16T05:17:30.607Z,97.70
2019-05-16T05:20:01.150Z,97.50
2019-05-16T05:22:30.455Z,97.40
2019-05-16T05:25:00.188Z,97.60
2019-05-16T05:27:30.328Z,97.30
2019-05-16T05:30:01.091Z,97.00
2019-05-16T05:32:30.539Z,96.50
2019-05-16T05:34:59.822Z,96.70
2019-05-16T05:37:29.844Z,96.50
2019-05-16T05:39:59.933Z,96.30
2019-05-16T05:42:30.645Z,96.30
2019-05-16T05:45:00.332Z,96.30
2019-05-16T05:47:30.813Z,96.10
2019-05-16T05:50:00.659Z,95.90
2019-05-16T05:52:30.350Z,96.00
2019-05-16T05:55:00.731Z,95.50
2019-05-16T05:57:30.010Z,94.60
2019-05-16T06:00:00.553Z,94.20
2019-05-16T06:02:30.992Z,94.10
2019-05-16T06:04:59.830Z,95.10
2019-05-16T06:07:29.996Z,95.50
2019-05-16T06:10:00.372Z,95.30
2019-05-16T06:12:30.346Z,94.90
2019-05-16T06:15:07.615Z,94.30
2019-05-16T06:17:30.675Z,93.90
2019-05-16T06:20:00.271Z,94.10
2019-05-16T06:22:29.821Z,93.70
2019-05-16T06:25:00.934Z,93.70
2019-05-16T06:27:30.245Z,93.40
2019-05-16T06:30:00.538Z,93.10
2019-05-16T06:32:30.385Z,93.30
2019-05-16T06:35:00.087Z,92.80
2019-05-16T06:37:30.879Z,93.60
2019-05-16T06:40:00.712Z,92.50
2019-05-16T06:42:29.893Z,91.90
2019-05-16T06:45:00.599Z,91.60
2019-05-16T06:47:30.523Z,91.90
2019-05-16T06:50:00.279Z,91.90
2019-05-16T06:52:30.162Z,90.50
2019-05-16T06:55:00.815Z,91.00
2019-05-16T06:57:30.244Z,91.10
2019-05-16T07:00:00.644Z,89.50
2019-05-16T07:02:33.656Z,89.80
2019-05-16T07:05:01.107Z,90.10
2019-05-16T07:07:30.829Z,89.80
2019-05-16T07:10:04.211Z,90.30
2019-05-16T07:12:33.382Z,87.80
2019-05-16T07:15:01.730Z,87.80
2019-05-16T07:17:30.677Z,89.30
2019-05-16T07:20:00.795Z,89.60
2019-05-16T07:22:31.183Z,90.20
2019-05-16T07:24:59.944Z,91.60
2019-05-16T07:27:30.959Z,91.90
2019-05-16T07:30:01.141Z,93.10
2019-05-16T07:32:30.211Z,93.40
2019-05-16T07:35:00.366Z,94.20
2019-05-16T07:37:31.440Z,94.50
2019-05-16T07:40:08.502Z,92.70
2019-05-16T07:42:30.715Z,90.20
2019-05-16T07:45:00.734Z,90.00
2019-05-16T07:47:30.929Z,90.70
2019-05-16T07:49:59.649Z,87.70
2019-05-16T07:52:35.475Z,83.00
2019-05-16T07:55:00.293Z,82.10
2019-05-16T07:57:30.487Z,82.10
2019-05-16T08:00:00.161Z,80.20
2019-05-16T08:02:31.124Z,79.20
2019-05-16T08:05:00.701Z,79.50
2019-05-16T08:07:33.146Z,80.00
2019-05-16T08:09:59.839Z,77.20
2019-05-16T08:12:32.841Z,79.20
2019-05-16T08:15:00.723Z,79.10
2019-05-16T08:17:31.312Z,79.90
2019-05-16T08:20:00.036Z,78.60
2019-05-16T08:22:30.732Z,77.70
2019-05-16T08:25:00.202Z,78.50
2019-05-16T08:27:31.197Z,78.80
2019-05-16T08:30:02.207Z,80.10
2019-05-16T08:32:31.268Z,80.40
2019-05-16T08:35:01.100Z,81.40
2019-05-16T08:40:00.372Z,82.00
2019-05-16T08:42:32.363Z,76.30
2019-05-16T08:45:01.956Z,74.80
2019-05-16T08:50:00.670Z,74.00
2019-05-16T08:52:31.533Z,73.10
2019-05-16T08:55:03.177Z,71.10
2019-05-16T08:57:32.707Z,69.90
2019-05-16T09:00:01.231Z,66.20
2019-05-16T09:02:35.792Z,66.60
2019-05-16T09:05:05.160Z,64.00
2019-05-16T09:10:00.876Z,62.30
2019-05-16T09:10:11.187Z,74.60
2019-05-16T09:10:26.103Z,63.00
2019-05-16T09:10:34.258Z,82.30
2019-05-16T09:12:29.673Z,63.00
2019-05-16T09:15:00.937Z,64.00
2019-05-16T09:17:28.222Z,63.50
2019-05-16T09:19:57.681Z,63.20
2019-05-16T09:22:28.227Z,64.80
2019-05-16T09:24:57.649Z,63.80
2019-05-16T09:27:27.349Z,62.50
2019-05-16T09:29:56.814Z,61.60
2019-05-16T09:32:27.957Z,59.60
2019-05-16T09:34:57.325Z,59.90
2019-05-16T09:37:26.751Z,60.40
2019-05-16T09:39:57.280Z,61.00
2019-05-16T09:42:27.737Z,59.70
2019-05-16T09:44:57.734Z,59.40
2019-05-16T09:47:28.282Z,59.50
2019-05-16T09:49:57.925Z,62.10
2019-05-16T09:52:27.351Z,60.50
2019-05-16T09:54:57.790Z,59.90
2019-05-16T09:57:27.739Z,58.30
2019-05-16T09:59:57.159Z,58.00
2019-05-16T10:02:27.428Z,59.00
2019-05-16T10:04:58.024Z,58.30
2019-05-16T10:07:28.356Z,58.70
2019-05-16T10:09:57.190Z,58.20
2019-05-16T10:12:26.306Z,57.10
2019-05-16T10:14:54.815Z,56.20
2019-05-16T10:17:23.289Z,56.00
2019-05-16T10:19:51.685Z,56.00
2019-05-16T10:22:20.115Z,55.70
2019-05-16T10:24:48.514Z,57.00
2019-05-16T10:27:17.289Z,55.90
2019-05-16T10:29:48.518Z,55.70
2019-05-16T10:32:16.728Z,56.00
2019-05-16T10:34:46.746Z,56.00
2019-05-16T10:37:17.629Z,56.00
2019-05-16T10:39:46.946Z,55.10
2019-05-16T10:42:25.104Z,54.70
2019-05-16T10:44:48.442Z,54.00
2019-05-16T10:47:17.215Z,53.70
2019-05-16T10:49:47.541Z,52.60
2019-05-16T10:52:16.665Z,53.90
2019-05-16T10:54:55.343Z,52.60
2019-05-16T10:57:15.811Z,52.90
2019-05-16T11:00:04.257Z,53.00
2019-05-16T11:02:16.538Z,54.10
2019-05-16T11:04:57.343Z,53.70
2019-05-16T11:07:14.763Z,53.30
2019-05-16T11:09:54.956Z,52.90
2019-05-16T11:12:13.386Z,53.90
2019-05-16T11:14:42.051Z,54.60
2019-05-16T11:17:12.855Z,55.00
2019-05-16T11:19:40.636Z,54.50
2019-05-16T11:22:09.042Z,53.20
2019-05-16T11:24:37.834Z,52.30
2019-05-16T11:27:07.481Z,50.60
2019-05-16T11:29:36.608Z,50.40
2019-05-16T11:32:06.926Z,50.20
2019-05-16T11:34:37.404Z,49.90
2019-05-16T11:37:06.829Z,51.60
2019-05-16T11:39:37.094Z,51.30
2019-05-16T11:42:07.989Z,50.50
2019-05-16T11:44:38.079Z,50.90
2019-05-16T11:47:08.175Z,50.40
2019-05-16T11:49:36.933Z,49.80
2019-05-16T11:52:07.291Z,50.20
2019-05-16T11:54:37.459Z,49.90
2019-05-16T11:57:06.920Z,48.90
2019-05-16T11:59:37.344Z,49.10
2019-05-16T12:02:05.954Z,49.40
2019-05-16T12:04:34.386Z,48.10
2019-05-16T12:07:02.802Z,49.80
2019-05-16T12:09:34.272Z,49.10
2019-05-16T12:12:04.224Z,48.20
2019-05-16T12:14:31.510Z,48.00
2019-05-16T12:16:59.910Z,50.10
2019-05-16T12:19:34.602Z,48.10
2019-05-16T12:21:58.549Z,48.50
2019-05-16T12:24:36.879Z,48.70
2019-05-16T12:27:00.584Z,48.00
2019-05-16T12:29:28.078Z,49.00
2019-05-16T12:32:02.350Z,46.30
2019-05-16T12:34:26.892Z,46.80
2019-05-16T12:36:56.602Z,46.20
2019-05-16T12:39:26.841Z,46.90
2019-05-16T12:41:59.001Z,45.60
2019-05-16T12:44:26.935Z,44.10
2019-05-16T12:46:56.969Z,43.00
2019-05-16T12:49:28.489Z,41.70
2019-05-16T12:51:57.074Z,41.10
2019-05-16T12:54:27.630Z,39.80
2019-05-16T12:56:58.091Z,39.40
2019-05-16T12:59:26.751Z,38.20
2019-05-16T13:01:57.629Z,37.30
2019-05-16T13:04:27.909Z,35.40
2019-05-16T13:06:57.813Z,34.00
2019-05-16T13:09:26.518Z,33.90
2019-05-16T13:11:57.598Z,32.40
2019-05-16T13:14:27.813Z,32.10
2019-05-16T13:16:55.404Z,31.50
2019-05-16T13:19:23.848Z,31.20
2019-05-16T13:21:52.338Z,31.70
2019-05-16T13:24:20.797Z,35.30
2019-05-16T13:26:49.234Z,35.90
2019-05-16T13:29:18.179Z,34.60
2019-05-16T13:31:47.959Z,34.10
2019-05-16T13:34:17.834Z,33.00
2019-05-16T13:36:47.408Z,30.70
2019-05-16T13:39:17.010Z,30.30
2019-05-16T13:41:45.771Z,31.50
2019-05-16T13:44:19.055Z,32.30
2019-05-16T13:46:46.607Z,34.40
2019-05-16T13:49:14.547Z,36.60
2019-05-16T13:51:43.271Z,38.90
2019-05-16T13:54:11.722Z,40.00
2019-05-16T13:56:40.152Z,39.40
2019-05-16T13:59:08.555Z,40.40
2019-05-16T14:01:37.138Z,41.50
2019-05-16T14:04:09.773Z,41.90
2019-05-16T14:06:36.850Z,42.60
2019-05-16T14:09:07.640Z,43.90
2019-05-16T14:11:36.678Z,44.10
2019-05-16T14:14:06.130Z,43.30
2019-05-16T14:16:34.550Z,41.30
2019-05-16T14:19:02.952Z,41.20
2019-05-16T14:21:31.427Z,40.50
2019-05-16T14:23:59.862Z,38.80
2019-05-16T14:26:28.263Z,37.40
2019-05-16T14:28:57.783Z,38.00
2019-05-16T14:31:26.838Z,39.80
2019-05-16T14:33:56.797Z,39.70
2019-05-16T14:36:27.913Z,41.50
2019-05-16T14:38:57.541Z,41.80
2019-05-16T14:41:27.709Z,43.20
2019-05-16T14:43:55.716Z,44.50
2019-05-16T14:46:27.210Z,46.60
2019-05-16T14:48:54.304Z,49.20
2019-05-16T14:51:22.700Z,51.20
2019-05-16T14:53:51.568Z,52.50
2019-05-16T14:56:20.020Z,53.90
2019-05-16T14:58:48.832Z,54.60
2019-05-16T15:01:17.738Z,55.60
2019-05-16T15:03:47.308Z,56.70
2019-05-16T15:06:18.212Z,58.00
2019-05-16T15:08:47.407Z,59.10
2019-05-16T15:11:17.977Z,60.30
2019-05-16T15:13:46.259Z,61.30
2019-05-16T15:16:16.840Z,62.10
2019-05-16T15:18:47.411Z,64.10
2019-05-16T15:21:17.407Z,66.60
2019-05-16T15:23:45.164Z,68.10
2019-05-16T15:26:13.556Z,69.60
2019-05-16T15:28:41.935Z,69.90
2019-05-16T15:31:10.410Z,70.90
2019-05-16T15:33:38.792Z,70.70
2019-05-16T15:36:08.573Z,72.20
2019-05-16T15:38:37.368Z,71.20
2019-05-16T15:41:08.239Z,70.20
2019-05-16T15:43:36.859Z,70.30
2019-05-16T15:46:08.178Z,72.00
2019-05-16T15:48:37.208Z,71.20
2019-05-16T15:51:08.745Z,72.60
2019-05-16T15:53:36.487Z,72.20
2019-05-16T15:56:07.017Z,71.70
2019-05-16T15:58:37.384Z,71.70
2019-05-16T16:01:06.977Z,72.30
2019-05-16T16:03:38.179Z,72.50
2019-05-16T16:06:07.005Z,71.70
2019-05-16T16:08:37.395Z,70.80
2019-05-16T16:11:07.382Z,70.60
2019-05-16T16:13:37.471Z,72.90
2019-05-16T16:16:10.004Z,72.80
2019-05-16T16:18:37.646Z,72.90
2019-05-16T16:21:07.566Z,74.80
2019-05-16T16:23:37.371Z,75.10
2019-05-16T16:26:07.167Z,76.20
2019-05-16T16:28:38.205Z,74.40
2019-05-16T16:31:07.685Z,74.50
2019-05-16T16:33:37.483Z,76.00
2019-05-16T16:36:07.820Z,78.70
2019-05-16T16:38:37.039Z,79.50
2019-05-16T16:41:08.151Z,79.70
2019-05-16T16:43:37.351Z,80.70
2019-05-16T16:46:12.866Z,81.60
2019-05-16T16:48:36.297Z,83.50
2019-05-16T16:51:06.600Z,83.90
2019-05-16T16:53:37.478Z,83.50
2019-05-16T16:56:07.569Z,83.30
2019-05-16T16:58:37.205Z,84.10
2019-05-16T17:01:07.345Z,82.80
2019-05-16T17:03:36.483Z,84.40
2019-05-16T17:06:26.976Z,85.10
2019-05-16T17:08:56.635Z,84.20
2019-05-16T17:11:26.472Z,83.60
2019-05-16T17:13:56.560Z,84.70
2019-05-16T17:16:28.423Z,85.60
2019-05-16T17:18:56.833Z,86.00
2019-05-16T17:21:25.331Z,86.40
2019-05-16T17:23:53.730Z,87.30
2019-05-16T17:26:22.158Z,88.30
2019-05-16T17:28:50.558Z,88.90
2019-05-16T17:31:18.986Z,89.10
2019-05-16T17:33:47.380Z,89.00
2019-05-16T17:36:17.214Z,89.10
2019-05-16T17:38:46.589Z,89.40
2019-05-16T17:41:16.870Z,89.10
2019-05-16T17:43:46.917Z,89.70
2019-05-16T17:46:15.637Z,90.40
2019-05-16T17:48:46.620Z,90.20
2019-05-16T17:51:14.256Z,90.50
2019-05-16T17:53:42.640Z,90.00
2019-05-16T17:56:11.070Z,90.20
2019-05-16T17:58:39.474Z,90.00
2019-05-16T18:01:09.245Z,90.40
2019-05-16T18:03:37.646Z,90.60
2019-05-16T18:06:06.394Z,90.30
2019-05-16T18:08:36.808Z,90.30
2019-05-16T18:11:07.057Z,90.50
2019-05-16T18:13:37.182Z,90.50
2019-05-16T18:16:07.423Z,91.00
2019-05-16T18:18:37.552Z,91.50
2019-05-16T18:21:06.963Z,92.50
2019-05-16T18:23:36.898Z,92.60
2019-05-16T18:26:07.753Z,92.60
2019-05-16T18:28:36.452Z,92.60
2019-05-16T18:31:04.959Z,92.70
2019-05-16T18:33:33.383Z,92.50
2019-05-16T18:36:01.804Z,92.50
2019-05-16T18:38:30.217Z,92.10
2019-05-16T18:40:58.641Z,92.10
2019-05-16T18:43:27.260Z,92.30
2019-05-16T18:45:56.640Z,92.60
2019-05-16T18:48:27.341Z,92.20
2019-05-16T18:50:57.579Z,91.90
2019-05-16T18:53:27.011Z,92.20
2019-05-16T18:55:57.109Z,91.60
2019-05-16T18:58:26.970Z,91.80
2019-05-16T19:00:55.556Z,91.40
2019-05-16T19:03:23.981Z,91.60
2019-05-16T19:05:52.368Z,91.40
2019-05-16T19:08:20.987Z,90.70
2019-05-16T19:10:49.395Z,90.90
2019-05-16T19:13:18.004Z,91.20
2019-05-16T19:15:49.282Z,91.10
2019-05-16T19:18:17.093Z,91.50
2019-05-16T19:20:46.038Z,91.30
2019-05-16T19:23:17.472Z,91.10
2019-05-16T19:25:47.395Z,90.80
2019-05-16T19:28:15.976Z,90.80
2019-05-16T19:30:46.454Z,90.80
2019-05-16T19:33:14.607Z,91.40
2019-05-16T19:35:43.041Z,91.50
2019-05-16T19:38:11.490Z,91.70
2019-05-16T19:40:40.506Z,91.90
2019-05-16T19:43:09.103Z,91.40
2019-05-16T19:45:37.569Z,91.60
2019-05-16T19:48:07.174Z,91.80
2019-05-16T19:50:37.180Z,91.60
2019-05-16T19:53:07.693Z,91.50
2019-05-16T19:55:36.599Z,91.70
2019-05-16T19:58:06.894Z,91.80
2019-05-16T20:00:37.476Z,91.90
2019-05-16T20:03:07.741Z,92.20
2019-05-16T20:05:37.446Z,92.40
2019-05-16T20:08:06.911Z,92.70
2019-05-16T20:10:36.670Z,93.20
2019-05-16T20:13:07.761Z,93.50
2019-05-16T20:15:36.677Z,93.70
2019-05-16T20:18:07.782Z,94.10
2019-05-16T20:20:37.205Z,93.90
2019-05-16T20:23:06.455Z,94.10
2019-05-16T20:25:36.585Z,94.60
2019-05-16T20:28:08.719Z,95.00
2019-05-16T20:30:37.192Z,94.90
2019-05-16T20:33:09.175Z,95.60
2019-05-16T20:35:37.529Z,95.80
2019-05-16T20:38:06.959Z,96.10
2019-05-16T20:40:37.430Z,96.20
2019-05-16T20:43:07.644Z,96.60
2019-05-16T20:45:36.147Z,96.80
2019-05-16T20:48:12.011Z,97.10
2019-05-16T20:50:36.189Z,97.20
2019-05-16T20:53:06.977Z,97.50
2019-05-16T20:55:37.402Z,97.40
2019-05-16T20:58:07.362Z,97.40
2019-05-16T21:00:37.521Z,97.60
2019-05-16T21:03:07.086Z,97.40
2019-05-16T21:05:38.317Z,97.50
2019-05-16T21:08:06.485Z,97.50
2019-05-16T21:10:35.149Z,98.10
2019-05-16T21:13:03.588Z,98.40
2019-05-16T21:15:31.988Z,98.60
2019-05-16T21:18:00.430Z,98.90
2019-05-16T21:20:29.821Z,98.70
2019-05-16T21:22:58.616Z,98.70
2019-05-16T21:25:27.215Z,98.40
2019-05-16T21:27:57.318Z,98.30
2019-05-16T21:30:27.415Z,98.50
2019-05-16T21:32:56.477Z,98.70
2019-05-16T21:35:27.072Z,98.90
2019-05-16T21:37:55.219Z,99.10
2019-05-16T21:40:23.644Z,99.10
2019-05-16T21:42:52.061Z,98.60
2019-05-16T21:45:20.649Z,98.70
2019-05-16T21:47:49.050Z,99.10
2019-05-16T21:50:19.185Z,99.30
2019-05-16T21:52:47.729Z,99.50
2019-05-16T21:55:17.586Z,99.30
2019-05-16T21:57:46.752Z,99.20
2019-05-16T22:00:43.769Z,99.90
2019-05-16T22:03:13.361Z,99.90
2019-05-16T22:05:41.866Z,99.90
2019-05-16T22:08:11.903Z,99.90
2019-05-16T22:10:40.439Z,99.90
2019-05-16T22:13:08.868Z,99.90
2019-05-16T22:15:37.465Z,99.90
2019-05-16T22:18:07.198Z,99.90
2019-05-16T22:20:36.185Z,99.90
2019-05-16T22:23:06.786Z,99.90
2019-05-16T22:25:34.887Z,99.90
2019-05-16T22:28:06.962Z,99.90
2019-05-16T22:30:36.412Z,99.90
2019-05-16T22:33:08.994Z,99.90
2019-05-16T22:35:38.158Z,99.90
2019-05-16T22:38:06.759Z,99.90
2019-05-16T22:40:37.417Z,99.90
2019-05-16T22:43:09.713Z,99.90
2019-05-16T22:45:37.355Z,99.90
2019-05-16T22:48:07.061Z,99.90
2019-05-16T22:50:36.460Z,99.90
2019-05-16T22:53:06.464Z,99.90
2019-05-16T22:55:37.066Z,99.90
2019-05-16T22:58:07.272Z,99.90
2019-05-16T23:00:39.004Z,99.90
2019-05-16T23:03:07.066Z,99.90
2019-05-16T23:05:36.830Z,99.90
2019-05-16T23:08:09.570Z,99.90
2019-05-16T23:10:36.789Z,99.90
2019-05-16T23:13:06.828Z,99.90
2019-05-16T23:15:36.402Z,99.90
2019-05-16T23:18:06.973Z,99.90
2019-05-16T23:20:36.968Z,99.90
2019-05-16T23:23:07.113Z,99.90
2019-05-16T23:25:37.088Z,99.90
2019-05-16T23:28:07.717Z,99.90
2019-05-16T23:30:36.592Z,99.90
2019-05-16T23:33:07.251Z,99.90
2019-05-16T23:35:37.616Z,99.90
2019-05-16T23:38:18.699Z,99.90
2019-05-16T23:40:37.386Z,99.90
2019-05-16T23:43:07.688Z,99.90
2019-05-16T23:45:37.512Z,99.90
2019-05-16T23:48:10.638Z,99.90
2019-05-16T23:50:36.809Z,99.90
2019-05-16T23:53:07.422Z,99.90
2019-05-16T23:55:37.297Z,99.90
2019-05-16T23:58:07.088Z,99.90
